createdAt,value
2018-07-13T00:02:25.361Z,20.60
2018-07-13T00:07:28.678Z,20.40
2018-07-13T00:12:32.041Z,20.40
2018-07-13T00:17:35.415Z,20.30
2018-07-13T00:22:38.726Z,20.30
2018-07-13T00:27:49.645Z,20.20
2018-07-13T00:32:52.987Z,20.20
2018-07-13T00:42:59.436Z,20.00
2018-07-13T00:48:02.771Z,19.90
2018-07-13T00:53:06.145Z,19.80
2018-07-13T00:58:09.497Z,19.80
2018-07-13T01:03:12.837Z,19.80
2018-07-13T01:08:16.233Z,19.70
2018-07-13T01:13:19.928Z,19.70
2018-07-13T01:18:23.456Z,19.70
2018-07-13T01:23:26.789Z,19.60
2018-07-13T01:28:30.117Z,19.50
2018-07-13T01:33:33.461Z,19.40
2018-07-13T01:38:36.785Z,19.40
2018-07-13T01:43:40.150Z,19.20
2018-07-13T01:48:43.494Z,19.20
2018-07-13T01:53:46.854Z,19.10
2018-07-13T01:58:50.244Z,19.10
2018-07-13T02:03:53.589Z,19.00
2018-07-13T02:08:56.924Z,19.00
2018-07-13T02:14:00.283Z,19.00
2018-07-13T02:19:03.646Z,18.90
2018-07-13T02:24:06.972Z,18.90
2018-07-13T02:29:10.295Z,18.80
2018-07-13T02:34:13.633Z,18.80
2018-07-13T02:39:16.981Z,18.70
2018-07-13T02:44:20.349Z,18.70
2018-07-13T02:49:23.709Z,18.70
2018-07-13T02:54:27.069Z,18.70
2018-07-13T02:59:30.388Z,18.70
2018-07-13T03:04:33.731Z,18.70
2018-07-13T03:09:37.052Z,18.60
2018-07-13T03:14:40.395Z,18.60
2018-07-13T03:19:43.728Z,18.50
2018-07-13T03:24:47.054Z,18.50
2018-07-13T03:29:50.372Z,18.40
2018-07-13T03:34:53.684Z,18.30
2018-07-13T03:39:57.004Z,18.20
2018-07-13T03:45:00.342Z,18.20
2018-07-13T03:50:03.753Z,18.20
2018-07-13T03:55:07.098Z,18.10
2018-07-13T04:00:11.304Z,18.20
2018-07-13T04:05:14.720Z,18.10
2018-07-13T04:10:18.074Z,18.10
2018-07-13T04:15:21.429Z,18.10
2018-07-13T04:20:24.784Z,18.10
2018-07-13T04:25:28.157Z,18.10
2018-07-13T04:30:31.629Z,18.10
2018-07-13T04:35:34.969Z,18.10
2018-07-13T04:40:38.302Z,18.00
2018-07-13T04:45:41.747Z,18.10
2018-07-13T04:50:45.118Z,18.20
2018-07-13T04:55:48.575Z,18.20
2018-07-13T05:00:51.970Z,18.20
2018-07-13T05:05:55.339Z,18.30
2018-07-13T05:10:58.721Z,18.40
2018-07-13T05:16:02.093Z,18.40
2018-07-13T05:21:05.491Z,18.50
2018-07-13T05:26:08.952Z,18.60
2018-07-13T05:31:12.897Z,18.70
2018-07-13T05:36:16.277Z,18.80
2018-07-13T05:41:20.569Z,19.00
2018-07-13T05:46:23.996Z,19.20
2018-07-13T05:51:27.396Z,19.40
2018-07-13T05:56:30.837Z,19.60
2018-07-13T06:01:34.234Z,19.80
2018-07-13T06:06:37.626Z,19.90
2018-07-13T06:11:42.001Z,20.00
2018-07-13T06:16:45.342Z,20.20
2018-07-13T06:21:48.784Z,20.40
2018-07-13T06:26:52.302Z,20.50
2018-07-13T06:31:55.648Z,20.60
2018-07-13T06:36:59.057Z,20.80
2018-07-13T06:47:05.608Z,21.10
2018-07-13T06:52:08.981Z,21.20
2018-07-13T06:58:18.721Z,21.30
2018-07-13T07:03:22.729Z,21.40
2018-07-13T07:08:26.115Z,21.50
2018-07-13T07:13:35.295Z,21.70
2018-07-13T07:18:38.667Z,21.80
2018-07-13T07:28:45.110Z,22.20
2018-07-13T07:33:48.491Z,22.40
2018-07-13T07:38:51.889Z,22.60
2018-07-13T07:43:55.373Z,22.80
2018-07-13T07:48:58.693Z,23.00
2018-07-13T07:54:02.049Z,23.30
2018-07-13T07:59:05.497Z,23.50
2018-07-13T08:04:08.808Z,23.70
2018-07-13T08:09:12.193Z,23.90
2018-07-13T08:14:15.680Z,24.00
2018-07-13T08:19:19.069Z,24.20
2018-07-13T08:24:23.429Z,24.40
2018-07-13T08:29:30.499Z,24.60
2018-07-13T08:34:33.909Z,24.80
2018-07-13T08:39:37.356Z,25.00
2018-07-13T08:44:40.778Z,25.10
2018-07-13T08:49:44.196Z,25.30
2018-07-13T08:54:47.705Z,25.40
2018-07-13T08:59:51.131Z,25.70
2018-07-13T09:05:05.504Z,25.80
2018-07-13T09:10:11.102Z,25.90
2018-07-13T09:15:14.753Z,26.10
2018-07-13T09:20:18.209Z,26.30
2018-07-13T09:25:21.668Z,26.50
2018-07-13T09:30:25.100Z,26.70
2018-07-13T09:35:28.537Z,26.80
2018-07-13T09:40:32.029Z,27.00
2018-07-13T09:45:35.648Z,27.20
2018-07-13T09:50:39.097Z,27.30
2018-07-13T09:55:42.546Z,27.50
2018-07-13T10:00:51.328Z,27.70
2018-07-13T10:05:54.755Z,27.90
2018-07-13T10:10:58.249Z,28.10
2018-07-13T10:16:01.792Z,28.30
2018-07-13T10:21:06.975Z,28.50
2018-07-13T10:26:12.986Z,28.80
2018-07-13T10:31:16.813Z,29.10
2018-07-13T10:36:20.480Z,29.20
2018-07-13T10:41:24.150Z,29.40
2018-07-13T10:46:27.684Z,29.50
2018-07-13T10:51:31.204Z,29.70
2018-07-13T10:56:34.885Z,29.90
2018-07-13T11:01:38.336Z,30.20
2018-07-13T11:06:42.453Z,30.40
2018-07-13T11:11:46.050Z,30.60
2018-07-13T11:16:49.586Z,30.90
2018-07-13T11:21:53.395Z,31.00
2018-07-13T11:27:00.054Z,31.10
2018-07-13T11:32:03.717Z,31.30
2018-07-13T11:37:07.457Z,31.30
2018-07-13T11:42:13.722Z,31.20
2018-07-13T11:47:17.428Z,31.00
2018-07-13T11:52:21.082Z,30.80
2018-07-13T11:57:24.749Z,30.40
2018-07-13T12:02:28.151Z,29.90
2018-07-13T12:07:31.597Z,29.20
2018-07-13T12:12:34.998Z,28.30
2018-07-13T12:17:38.384Z,27.50
2018-07-13T12:22:41.808Z,26.90
2018-07-13T12:27:45.221Z,26.50
2018-07-13T12:32:48.657Z,26.20
2018-07-13T12:37:52.148Z,26.00
2018-07-13T12:42:55.556Z,26.00
2018-07-13T12:47:58.986Z,26.00
2018-07-13T12:53:03.077Z,26.20
2018-07-13T12:58:06.620Z,26.40
2018-07-13T13:03:10.094Z,26.60
2018-07-13T13:08:13.491Z,26.70
2018-07-13T13:13:16.903Z,26.90
2018-07-13T13:18:20.312Z,26.80
2018-07-13T13:23:23.712Z,26.80
2018-07-13T13:28:27.116Z,26.60
2018-07-13T13:33:30.560Z,26.60
2018-07-13T13:38:33.945Z,26.60
2018-07-13T13:43:37.337Z,26.60
2018-07-13T13:48:41.131Z,26.80
2018-07-13T13:58:47.793Z,27.30
2018-07-13T14:03:51.232Z,27.40
2018-07-13T14:08:54.723Z,27.30
2018-07-13T14:13:58.189Z,27.10
2018-07-13T14:24:04.720Z,26.70
2018-07-13T14:29:08.227Z,26.60
2018-07-13T14:34:11.646Z,26.60
2018-07-13T14:39:15.117Z,26.50
2018-07-13T14:44:18.574Z,26.60
2018-07-13T14:49:22.035Z,26.60
2018-07-13T14:54:25.449Z,26.70
2018-07-13T14:59:28.868Z,26.80
2018-07-13T15:04:32.365Z,26.80
2018-07-13T15:09:35.797Z,26.90
2018-07-13T15:14:39.285Z,26.90
2018-07-13T15:19:42.792Z,26.90
2018-07-13T15:24:46.243Z,26.90
2018-07-13T15:29:49.758Z,26.80
2018-07-13T15:34:53.229Z,26.70
2018-07-13T15:39:56.869Z,26.60
2018-07-13T15:45:00.385Z,26.60
2018-07-13T15:50:03.959Z,26.50
2018-07-13T15:55:07.604Z,26.40
2018-07-13T16:00:11.095Z,26.30
2018-07-13T16:05:14.635Z,26.20
2018-07-13T16:10:18.097Z,26.20
2018-07-13T16:15:22.569Z,26.10
2018-07-13T16:20:26.041Z,26.10
2018-07-13T16:25:30.949Z,26.00
2018-07-13T16:30:34.486Z,26.00
2018-07-13T16:35:37.946Z,26.10
2018-07-13T16:40:43.509Z,26.00
2018-07-13T16:45:46.925Z,26.10
2018-07-13T16:50:50.353Z,26.20
2018-07-13T16:55:53.768Z,26.30
2018-07-13T17:00:57.235Z,26.50
2018-07-13T17:06:00.720Z,26.70
2018-07-13T17:11:04.174Z,26.90
2018-07-13T17:16:07.649Z,27.00
2018-07-13T17:21:11.151Z,27.10
2018-07-13T17:26:14.755Z,27.20
2018-07-13T17:31:18.268Z,27.20
2018-07-13T17:36:21.746Z,27.10
2018-07-13T17:41:25.208Z,27.00
2018-07-13T17:46:28.802Z,27.00
2018-07-13T17:51:32.363Z,26.80
2018-07-13T17:56:35.948Z,26.80
2018-07-13T18:01:39.425Z,26.60
2018-07-13T18:06:42.960Z,26.60
2018-07-13T18:11:46.463Z,26.40
2018-07-13T18:16:49.994Z,26.20
2018-07-13T18:21:53.583Z,26.20
2018-07-13T18:26:57.250Z,26.10
2018-07-13T18:32:00.818Z,26.00
2018-07-13T18:37:04.325Z,25.90
2018-07-13T18:42:07.809Z,25.80
2018-07-13T18:47:14.060Z,25.80
2018-07-13T18:52:27.014Z,25.70
2018-07-13T18:57:31.570Z,25.60
2018-07-13T19:02:35.002Z,25.50
2018-07-13T19:07:38.413Z,25.50
2018-07-13T19:12:41.888Z,25.40
2018-07-13T19:17:45.345Z,25.30
2018-07-13T19:22:48.840Z,25.20
2018-07-13T19:27:52.213Z,25.00
2018-07-13T19:32:55.694Z,24.90
2018-07-13T19:37:59.163Z,24.90
2018-07-13T19:48:06.214Z,24.70
2018-07-13T19:53:09.630Z,24.60
2018-07-13T19:58:13.089Z,24.50
2018-07-13T20:03:16.585Z,24.40
2018-07-13T20:08:20.033Z,24.30
2018-07-13T20:13:23.504Z,24.20
2018-07-13T20:18:27.008Z,24.10
2018-07-13T20:23:30.448Z,24.00
2018-07-13T20:28:33.859Z,24.00
2018-07-13T20:33:38.117Z,23.80
2018-07-13T20:38:41.550Z,23.70
2018-07-13T20:43:44.936Z,23.60
2018-07-13T20:48:48.452Z,23.50
2018-07-13T20:53:51.865Z,23.30
2018-07-13T20:58:55.276Z,23.20
2018-07-13T21:03:59.034Z,23.10
2018-07-13T21:09:02.512Z,23.00
2018-07-13T21:14:05.944Z,22.90
2018-07-13T21:19:09.384Z,22.90
2018-07-13T21:24:12.793Z,22.80
2018-07-13T21:29:16.221Z,22.80
2018-07-13T21:34:19.647Z,22.70
2018-07-13T21:39:23.048Z,22.60
2018-07-13T21:44:26.441Z,22.50
2018-07-13T21:49:29.865Z,22.40
2018-07-13T21:54:33.261Z,22.40
2018-07-13T21:59:36.649Z,22.20
2018-07-13T22:04:40.204Z,22.20
2018-07-13T22:09:43.597Z,22.10
2018-07-13T22:14:47.065Z,22.00
2018-07-13T22:19:50.604Z,22.00
2018-07-13T22:24:54.015Z,21.90
2018-07-13T22:29:57.406Z,21.80
2018-07-13T22:35:00.838Z,21.60
2018-07-13T22:40:04.249Z,21.60
2018-07-13T22:45:07.637Z,21.50
2018-07-13T22:50:11.045Z,21.40
2018-07-13T22:55:14.611Z,21.40
2018-07-13T23:00:18.011Z,21.30
2018-07-13T23:05:21.400Z,21.30
2018-07-13T23:10:24.775Z,21.20
2018-07-13T23:15:28.223Z,21.10
2018-07-13T23:20:31.604Z,21.10
2018-07-13T23:25:35.009Z,21.00
2018-07-13T23:30:38.545Z,20.80
2018-07-13T23:35:41.946Z,20.80
2018-07-13T23:40:45.354Z,20.70
2018-07-13T23:45:48.736Z,20.70
2018-07-13T23:50:52.136Z,20.60
2018-07-13T23:55:55.526Z,20.60
